Airfield :
LOGIN :

Register | Disclaimer

   EN    FR    IT 

 










Legend :    VFR   Marginal VFR   IFR   Intensive IFR   Very Intensive IFR
Visi :
Ceiling :
>= 8 km
>= 3000ft
5 to 8 km
1000 to 3000 ft
1500m to 5 km
500 to 1000 ft
800 to 1500m
200 to 500 ft
< 800m
< 200 ft
Symbols :   Thunderstorms  Fog  Heavy snow  Heavy precipitations  Wind > 20 kt
SIGMETs :     Misc.  Thunderstorms  Icing  Turbulence  Mountain Waves  Volcanic Ashes






- Airport Elevation : 286 ft
- IATA code : FFD


EGVA - RAF Fairford

CURRENT METAR :
  • 271746Z AUTO 22007KT 9999 SCT022 05/03 A2932 RMK AO2 SLP934 $

EXPIRED METARs :
  • 271711Z AUTO 22009KT 9999 BKN023 05/04 A2933 RMK AO2 SLP938 $
  • 271656Z AUTO 22008KT 9999 FEW023 SCT041 05/04 A2934 RMK AO2 SLP941 T00520039 $
  • 271646Z AUTO 22007KT 9999 FEW021 SCT037 06/04 A2934 RMK AO2 SLP941 $
  • 271626Z AUTO 22008KT 9999 FEW019 SCT026 BKN036 06/04 A2935 RMK AO2 SLP944 $
  • 271616Z AUTO 22011KT 9999 BKN028 BKN038 06/04 A2935 RMK AO2 CIG 026V038 SLP944 $
  • 271606Z AUTO 21008KT 9999 FEW030 BKN038 06/04 A2936 RMK AO2 SLP948 $
  • 271547Z AUTO 19007KT 9999 SCT029 BKN040 06/04 A2936 RMK AO2 RAE1456DZB1456E1457RAB10E22 SLP948 $
  • 271522Z AUTO 19011KT 9999 BKN029 BKN037 BKN045 06/05 A2938 RMK AO2 RAE1456DZB1456E1457RAB10E22 CIG 029V045 SLP954 $
  • 271457Z AUTO 19012KT 9999 SCT019 06/05 A2938 RMK AO2 RAE56DZB56E57 SLP954 $
  • 271450Z AUTO 19013KT 9999 -RA FEW015 SCT021 SCT029 07/05 A2939 RMK AO2 DZB35E39RAB39 SLP957 $

Expired Forecast.



MET'MAP, your aeronautical weather chart ! - Copyright ORBIFLY December 2007 - Disclaimer

ORBIFLY MET'MAP TEAM :

Programming & Development : Alexandra Zaïnal
Concept & original design : Baudouin d'Aumeries
Assistance for programming : Marc-Olivier Méhu
Technical & hardware support : Manuel Goepfert

Contact : metmap@orbifly.com




SOURCES & CREDITS :

   NOAA